Time;durP1;ratioP1;P1;durP2;ratioP2;P2;SDS_P1;SDS_P2;PMS_P1;PMS_P2;Temp;Humidity;BMP_temperature;BMP_pressure;BME280_temperature;BME280_humidity;BME280_pressure;Samples;Min_cycle;Max_cycle;Signal;HPM_P1;HPM_P2
2020/12/20 00:00:16;;;;;;;19.85;6.38;;;11.50;99.90;;;;;;5054797;28;20472;-70
2020/12/20 00:06:03;;;;;;;13.15;6.35;;;11.50;99.90;;;;;;5052231;28;20140;-71
2020/12/20 00:08:29;;;;;;;16.63;6.82;;;11.50;99.90;;;;;;5054862;28;20064;-69
2020/12/20 00:10:55;;;;;;;17.80;6.78;;;11.60;99.90;;;;;;5054840;28;20025;-71
2020/12/20 00:13:20;;;;;;;22.63;7.60;;;11.50;99.90;;;;;;5054650;28;20465;-73
2020/12/20 00:15:46;;;;;;;16.98;6.75;;;11.60;99.90;;;;;;5054801;28;20469;-72
2020/12/20 00:21:33;;;;;;;16.25;6.45;;;11.60;99.90;;;;;;5054395;28;20491;-71
2020/12/20 00:23:59;;;;;;;17.63;6.18;;;11.60;99.90;;;;;;5054574;28;20025;-72
2020/12/20 00:26:24;;;;;;;14.25;5.70;;;11.60;99.90;;;;;;5056042;28;20029;-72
2020/12/20 00:28:50;;;;;;;17.00;5.85;;;11.60;99.90;;;;;;5068610;28;20035;-71
2020/12/20 00:31:18;;;;;;;17.08;5.60;;;11.60;99.90;;;;;;5067236;28;20059;-71
2020/12/20 00:33:44;;;;;;;14.80;5.43;;;11.60;99.90;;;;;;5067223;28;20368;-70
2020/12/20 00:36:10;;;;;;;18.60;5.38;;;11.60;99.90;;;;;;5068832;28;20021;-71
2020/12/20 00:38:35;;;;;;;18.52;5.47;;;11.60;99.90;;;;;;5055383;28;20380;-71
2020/12/20 00:41:01;;;;;;;21.65;5.55;;;11.70;99.90;;;;;;5054206;28;20028;-71
2020/12/20 00:43:27;;;;;;;24.55;5.40;;;11.70;99.90;;;;;;5054108;28;20035;-71
2020/12/20 00:45:52;;;;;;;16.92;5.40;;;11.70;99.90;;;;;;5053499;28;20086;-70
2020/12/20 00:51:40;;;;;;;16.27;5.10;;;11.60;99.90;;;;;;5054003;28;20040;-70
2020/12/20 00:54:06;;;;;;;19.00;4.90;;;11.60;99.90;;;;;;5053726;28;20033;-70
2020/12/20 00:56:32;;;;;;;19.75;5.30;;;11.60;99.90;;;;;;5053717;28;20445;-70
2020/12/20 00:58:58;;;;;;;18.02;4.60;;;11.50;99.90;;;;;;5054081;28;20086;-70
2020/12/20 01:01:25;;;;;;;19.67;4.88;;;11.50;99.90;;;;;;5053553;28;20104;-70
2020/12/20 01:03:51;;;;;;;18.40;5.00;;;11.50;99.90;;;;;;5053520;28;20110;-70
2020/12/20 01:06:24;;;;;;;17.70;4.80;;;11.50;99.90;;;;;;5053267;28;20511;-70
2020/12/20 01:08:51;;;;;;;16.60;4.53;;;11.50;99.90;;;;;;5053839;28;20052;-70
2020/12/20 01:11:19;;;;;;;22.20;5.35;;;11.40;99.90;;;;;;5053374;28;20035;-70
2020/12/20 01:13:51;;;;;;;19.67;5.22;;;11.40;99.90;;;;;;5053625;28;20041;-70
2020/12/20 01:16:19;;;;;;;23.52;5.03;;;11.40;99.90;;;;;;5053265;28;20025;-70
2020/12/20 01:18:45;;;;;;;21.38;4.88;;;11.40;99.90;;;;;;5053347;28;20116;-70
2020/12/20 01:21:11;;;;;;;20.15;4.68;;;11.40;99.90;;;;;;5053264;28;20472;-71
2020/12/20 01:23:37;;;;;;;21.75;4.70;;;11.30;99.90;;;;;;5053417;28;20040;-71
2020/12/20 01:26:03;;;;;;;18.27;4.40;;;11.30;99.90;;;;;;5053466;28;20025;-71
2020/12/20 01:28:33;;;;;;;21.48;4.75;;;11.30;99.90;;;;;;5053349;28;20107;-71
2020/12/20 01:31:00;;;;;;;20.13;4.60;;;11.30;99.90;;;;;;5053083;28;20507;-71
2020/12/20 01:36:47;;;;;;;17.92;4.75;;;11.30;99.90;;;;;;5053014;28;20028;-73
2020/12/20 01:39:14;;;;;;;20.65;5.00;;;11.30;99.90;;;;;;5053191;28;20021;-73
2020/12/20 01:41:40;;;;;;;22.73;3.90;;;11.30;99.90;;;;;;5053031;28;20024;-71
2020/12/20 01:44:05;;;;;;;20.48;4.30;;;11.30;99.90;;;;;;5053177;28;20024;-72
2020/12/20 01:46:32;;;;;;;17.05;4.15;;;11.30;99.90;;;;;;5052788;28;20032;-73
2020/12/20 01:48:57;;;;;;;21.58;4.15;;;11.30;99.90;;;;;;5053036;28;20028;-73
2020/12/20 01:51:23;;;;;;;24.25;4.63;;;11.20;99.90;;;;;;5052775;28;20032;-73
2020/12/20 01:53:51;;;;;;;21.67;4.43;;;11.20;99.90;;;;;;5052713;28;20572;-72
2020/12/20 01:56:18;;;;;;;25.05;4.68;;;11.20;99.90;;;;;;5053042;28;20100;-70
2020/12/20 01:58:46;;;;;;;21.33;4.35;;;11.20;99.90;;;;;;5052656;28;20028;-70
2020/12/20 02:01:11;;;;;;;22.10;4.88;;;11.20;99.90;;;;;;5052509;28;20076;-70
2020/12/20 02:07:00;;;;;;;21.50;4.95;;;11.10;99.90;;;;;;5043815;28;20060;-72
2020/12/20 02:09:26;;;;;;;19.48;4.25;;;11.10;99.90;;;;;;5052421;28;20037;-72
2020/12/20 02:11:52;;;;;;;16.25;4.05;;;11.10;99.90;;;;;;5052232;28;20382;-72
2020/12/20 02:14:18;;;;;;;22.83;4.60;;;11.10;99.90;;;;;;5052174;28;20522;-72
2020/12/20 02:16:44;;;;;;;21.35;4.53;;;11.10;99.90;;;;;;5052108;28;20116;-72
2020/12/20 02:19:10;;;;;;;18.88;4.18;;;11.00;99.90;;;;;;5052154;28;20059;-71
2020/12/20 02:21:36;;;;;;;21.05;4.45;;;11.00;99.90;;;;;;5052432;28;20112;-71
2020/12/20 02:24:01;;;;;;;25.90;4.32;;;11.00;99.90;;;;;;5052196;28;20445;-69
2020/12/20 02:26:29;;;;;;;18.30;4.00;;;11.10;99.90;;;;;;5052415;28;20025;-69
2020/12/20 02:28:56;;;;;;;22.70;4.63;;;11.00;99.90;;;;;;5052408;28;20127;-68
2020/12/20 02:31:24;;;;;;;26.02;4.60;;;11.00;99.90;;;;;;5052401;28;20415;-69
2020/12/20 02:37:11;;;;;;;26.48;5.30;;;11.00;99.90;;;;;;5052241;28;20036;-69
2020/12/20 02:39:40;;;;;;;23.05;5.28;;;11.00;99.90;;;;;;5052152;28;20022;-69
2020/12/20 02:42:06;;;;;;;21.08;5.50;;;11.00;99.90;;;;;;5052241;28;20032;-69
2020/12/20 02:44:32;;;;;;;19.58;4.85;;;11.00;99.90;;;;;;5052286;28;20471;-72
2020/12/20 02:46:58;;;;;;;21.88;4.38;;;11.00;99.90;;;;;;5051903;28;20032;-71
2020/12/20 02:49:23;;;;;;;21.25;4.38;;;11.00;99.90;;;;;;5051788;28;20021;-71
2020/12/20 02:51:49;;;;;;;19.60;4.35;;;11.00;99.90;;;;;;5052104;28;20025;-70
2020/12/20 02:54:15;;;;;;;21.70;4.63;;;11.00;99.90;;;;;;5051869;28;20029;-70
2020/12/20 02:56:44;;;;;;;24.15;4.50;;;11.00;99.90;;;;;;5052026;28;20049;-71
2020/12/20 02:59:10;;;;;;;26.77;4.28;;;10.90;99.90;;;;;;5051937;28;20036;-71
2020/12/20 03:01:35;;;;;;;22.38;4.50;;;11.00;99.90;;;;;;5052166;28;20449;-70
2020/12/20 03:07:25;;;;;;;24.20;4.88;;;10.90;99.90;;;;;;5047066;28;20060;-71
2020/12/20 03:09:52;;;;;;;19.35;4.40;;;10.90;99.90;;;;;;5052930;28;20025;-71
2020/12/20 03:12:18;;;;;;;19.17;4.00;;;11.00;99.90;;;;;;5055289;28;20017;-71
2020/12/20 03:14:44;;;;;;;25.15;4.57;;;10.90;99.90;;;;;;5055303;28;20029;-71
2020/12/20 03:17:10;;;;;;;23.77;4.88;;;10.90;99.90;;;;;;5055446;28;20061;-71
2020/12/20 03:19:35;;;;;;;24.98;4.50;;;10.90;99.90;;;;;;5055056;28;20052;-70
2020/12/20 03:22:01;;;;;;;23.63;5.05;;;10.90;99.90;;;;;;5055492;28;20087;-70
2020/12/20 03:24:26;;;;;;;23.85;4.18;;;10.90;99.90;;;;;;5055373;28;20025;-70
2020/12/20 03:26:52;;;;;;;20.45;4.78;;;10.90;99.90;;;;;;5055340;28;20025;-70
2020/12/20 03:29:18;;;;;;;23.95;4.40;;;10.90;99.90;;;;;;5055267;28;20025;-70
2020/12/20 03:31:43;;;;;;;18.38;4.45;;;10.90;99.90;;;;;;5054875;28;20037;-69
2020/12/20 03:37:31;;;;;;;25.05;4.22;;;10.90;99.90;;;;;;5055148;28;20048;-71
2020/12/20 03:39:56;;;;;;;19.27;4.25;;;10.90;99.90;;;;;;5055093;28;20449;-71
2020/12/20 03:42:22;;;;;;;21.90;4.50;;;10.90;99.90;;;;;;5054986;28;20029;-72
2020/12/20 03:44:47;;;;;;;19.73;4.18;;;10.90;99.90;;;;;;5054856;28;20025;-72
2020/12/20 03:47:13;;;;;;;27.52;4.38;;;10.90;99.90;;;;;;5054951;28;20472;-72
2020/12/20 03:53:02;;;;;;;19.27;3.80;;;10.80;99.90;;;;;;5054568;28;20435;-72
2020/12/20 03:55:27;;;;;;;22.55;3.97;;;10.90;99.90;;;;;;5054509;28;20029;-72
2020/12/20 03:57:53;;;;;;;20.08;4.22;;;10.90;99.90;;;;;;5054801;28;20063;-72
2020/12/20 04:00:19;;;;;;;20.08;4.70;;;10.90;99.90;;;;;;5054729;28;20358;-72
2020/12/20 04:02:44;;;;;;;23.95;4.47;;;10.80;99.90;;;;;;5054255;28;20028;-71
2020/12/20 04:05:10;;;;;;;25.08;4.75;;;10.90;99.90;;;;;;5054172;28;20031;-71
2020/12/20 04:07:35;;;;;;;19.52;4.00;;;10.80;99.90;;;;;;5054340;28;20049;-70
2020/12/20 04:10:01;;;;;;;16.55;4.03;;;10.80;99.90;;;;;;5054590;28;20021;-70
2020/12/20 04:12:27;;;;;;;20.13;4.32;;;10.80;99.90;;;;;;5054217;28;20029;-70
2020/12/20 04:14:52;;;;;;;20.35;5.05;;;10.80;99.90;;;;;;5054284;28;20099;-71
2020/12/20 04:17:18;;;;;;;32.83;5.45;;;10.80;99.90;;;;;;5054384;28;20029;-71
2020/12/20 04:23:06;;;;;;;19.70;4.78;;;10.80;99.90;;;;;;5053965;28;20032;-71
2020/12/20 04:25:31;;;;;;;19.08;4.15;;;10.80;99.90;;;;;;5053718;28;20025;-70
2020/12/20 04:27:57;;;;;;;21.55;4.10;;;10.80;99.90;;;;;;5053914;28;20097;-73
2020/12/20 04:30:24;;;;;;;24.42;4.00;;;10.80;99.90;;;;;;5036015;28;20095;-72
2020/12/20 04:32:50;;;;;;;24.27;4.43;;;10.70;99.90;;;;;;5053809;28;20037;-72
2020/12/20 04:35:15;;;;;;;23.67;4.63;;;10.70;99.90;;;;;;5054036;28;20096;-72
2020/12/20 04:37:41;;;;;;;23.90;4.50;;;10.70;99.90;;;;;;5058911;28;20029;-71
2020/12/20 04:40:07;;;;;;;20.63;4.38;;;10.70;99.90;;;;;;5067634;28;20021;-72
2020/12/20 04:42:32;;;;;;;18.77;3.90;;;10.70;99.90;;;;;;5067503;28;20452;-72
2020/12/20 04:44:58;;;;;;;21.52;4.50;;;10.60;99.90;;;;;;5068124;28;20115;-72
2020/12/20 04:47:25;;;;;;;23.35;4.65;;;10.60;99.90;;;;;;5065663;28;20020;-71
2020/12/20 04:53:13;;;;;;;24.55;4.85;;;10.60;99.90;;;;;;5053516;28;20126;-73
2020/12/20 04:55:39;;;;;;;25.98;4.65;;;10.60;99.90;;;;;;5053412;28;20067;-73
2020/12/20 04:58:05;;;;;;;23.08;4.80;;;10.60;99.90;;;;;;5053483;28;20051;-72
2020/12/20 05:00:31;;;;;;;24.35;5.68;;;10.60;99.90;;;;;;5053490;28;20021;-70
2020/12/20 05:02:57;;;;;;;26.63;4.50;;;10.60;99.90;;;;;;5053240;28;20056;-70
2020/12/20 05:05:23;;;;;;;25.63;4.30;;;10.60;99.90;;;;;;5053516;28;20056;-70
2020/12/20 05:07:50;;;;;;;23.02;4.13;;;10.60;99.90;;;;;;5053083;28;20059;-70
2020/12/20 05:10:16;;;;;;;18.17;4.20;;;10.60;99.90;;;;;;5053049;28;20412;-70
2020/12/20 05:12:42;;;;;;;21.73;4.80;;;10.50;99.90;;;;;;5053291;28;20036;-70
2020/12/20 05:15:37;;;;;;;22.45;4.35;;;10.50;99.90;;;;;;5052950;28;20057;-70
2020/12/20 05:22:16;;;;;;;23.17;4.68;;;10.50;99.90;;;;;;5011171;28;20133;-70
2020/12/20 05:24:44;;;;;;;21.15;4.55;;;10.50;99.90;;;;;;5010901;28;20030;-70
2020/12/20 05:27:29;;;;;;;19.13;4.85;;;10.50;99.90;;;;;;5010855;28;20050;-70
2020/12/20 05:30:14;;;;;;;26.75;4.68;;;10.50;99.90;;;;;;5010693;28;20026;-70
2020/12/20 05:32:42;;;;;;;22.52;5.45;;;10.40;99.90;;;;;;5010379;28;20117;-70
2020/12/20 05:38:30;;;;;;;28.75;5.07;;;10.40;99.90;;;;;;5010639;28;20137;-72
2020/12/20 05:40:56;;;;;;;27.85;5.68;;;10.40;99.90;;;;;;5010558;28;20686;-71
2020/12/20 05:43:24;;;;;;;29.33;5.47;;;10.40;99.90;;;;;;4994180;28;20076;-70
2020/12/20 05:45:50;;;;;;;18.83;4.60;;;10.40;99.90;;;;;;5010589;28;20022;-71
2020/12/20 05:48:19;;;;;;;25.35;5.18;;;10.30;99.90;;;;;;5010444;28;20099;-71
2020/12/20 05:50:58;;;;;;;27.73;5.78;;;10.30;99.90;;;;;;5010500;28;20446;-71
2020/12/20 05:53:24;;;;;;;24.13;5.97;;;10.30;99.90;;;;;;5012625;28;20030;-71
2020/12/20 05:55:50;;;;;;;28.75;5.18;;;10.30;99.90;;;;;;5052463;28;20021;-71
2020/12/20 05:58:17;;;;;;;25.48;5.35;;;10.30;99.90;;;;;;5052862;28;20031;-72
2020/12/20 06:00:44;;;;;;;23.83;5.28;;;10.30;99.90;;;;;;5052521;28;20052;-71
2020/12/20 06:03:10;;;;;;;29.08;5.20;;;10.30;99.90;;;;;;5052439;28;20029;-70
2020/12/20 06:05:43;;;;;;;21.95;4.85;;;10.20;99.90;;;;;;5052274;28;20480;-69
2020/12/20 06:08:13;;;;;;;23.67;5.03;;;10.20;99.90;;;;;;5052131;28;20136;-67
2020/12/20 06:10:47;;;;;;;21.83;5.28;;;10.20;99.90;;;;;;5052512;28;20033;-71
2020/12/20 06:13:17;;;;;;;;;;;10.20;99.90;;;;;;5052781;28;20067;-71
2020/12/20 06:15:44;;;;;;;22.98;5.38;;;10.20;99.90;;;;;;5052275;28;20266;-70
2020/12/20 06:18:12;;;;;;;27.33;5.60;;;10.20;99.90;;;;;;5052085;28;20052;-70
2020/12/20 06:20:56;;;;;;;26.60;5.63;;;10.10;99.90;;;;;;5052254;28;20100;-71
2020/12/20 06:23:25;;;;;;;19.33;4.90;;;10.10;99.90;;;;;;5052303;28;20384;-72
2020/12/20 06:25:52;;;;;;;22.17;5.90;;;10.10;99.90;;;;;;5052183;28;20044;-70
2020/12/20 06:28:26;;;;;;;22.10;5.88;;;10.10;99.90;;;;;;5052046;28;20067;-71
2020/12/20 06:30:53;;;;;;;24.65;5.20;;;10.10;99.90;;;;;;5052126;28;20477;-69
2020/12/20 06:33:31;;;;;;;19.83;6.00;;;10.10;99.90;;;;;;5051692;28;20086;-70
2020/12/20 06:35:57;;;;;;;29.45;6.07;;;10.10;99.90;;;;;;5052239;28;20396;-70
2020/12/20 06:38:24;;;;;;;24.50;5.82;;;10.10;99.90;;;;;;5052215;28;20027;-69
2020/12/20 06:40:50;;;;;;;20.00;5.38;;;10.10;99.90;;;;;;5052216;28;20410;-70
2020/12/20 06:43:34;;;;;;;23.55;5.78;;;10.10;99.90;;;;;;5052359;28;20488;-71
2020/12/20 06:46:00;;;;;;;27.25;6.00;;;10.10;99.90;;;;;;5055352;28;20078;-70
2020/12/20 06:48:37;;;;;;;28.30;6.43;;;10.10;99.90;;;;;;5055914;28;20060;-70
2020/12/20 06:51:08;;;;;;;21.05;5.55;;;10.00;99.90;;;;;;5055751;28;20076;-70
2020/12/20 06:53:45;;;;;;;23.00;5.38;;;10.10;99.90;;;;;;5055996;28;20036;-70
2020/12/20 06:56:16;;;;;;;24.35;5.43;;;10.00;99.90;;;;;;5055569;28;20028;-70
2020/12/20 06:58:41;;;;;;;27.52;6.07;;;10.00;99.90;;;;;;5055529;28;20029;-70
2020/12/20 07:01:07;;;;;;;24.92;5.25;;;10.00;99.90;;;;;;5055809;28;20116;-69
2020/12/20 07:03:35;;;;;;;20.02;5.85;;;10.00;99.90;;;;;;5055412;28;20028;-70
2020/12/20 07:06:07;;;;;;;23.65;5.70;;;10.00;99.90;;;;;;5055419;28;20078;-73
2020/12/20 07:08:33;;;;;;;25.25;5.70;;;10.00;99.90;;;;;;5055688;28;20033;-73
2020/12/20 07:11:02;;;;;;;24.17;5.70;;;9.90;99.90;;;;;;5055645;28;20039;-71
2020/12/20 07:13:32;;;;;;;22.02;6.28;;;10.00;99.90;;;;;;5055602;28;20041;-71
2020/12/20 07:16:15;;;;;;;21.90;5.95;;;10.00;99.90;;;;;;5055377;28;20365;-71
2020/12/20 07:19:00;;;;;;;35.53;6.28;;;9.90;99.90;;;;;;5055508;28;20494;-72
2020/12/20 07:21:33;;;;;;;26.27;6.47;;;9.90;99.90;;;;;;5055371;28;20028;-72
2020/12/20 07:24:13;;;;;;;36.85;6.00;;;9.90;99.90;;;;;;5055407;28;20025;-72
2020/12/20 07:26:39;;;;;;;27.00;6.55;;;9.90;99.90;;;;;;5055014;28;20056;-72
2020/12/20 07:29:07;;;;;;;25.13;5.82;;;9.90;99.90;;;;;;5054960;28;20029;-73
2020/12/20 15:50:01;;;;;;;18.50;3.75;;;12.90;99.90;;;;;;5081176;27;20375;-71
2020/12/20 15:52:29;;;;;;;9.98;3.17;;;12.20;99.90;;;;;;5106863;28;20097;-72
2020/12/20 15:54:55;;;;;;;18.38;3.47;;;11.80;99.90;;;;;;5106679;28;20024;-72
2020/12/20 15:57:21;;;;;;;14.77;3.35;;;11.50;99.90;;;;;;5099369;28;20020;-70
2020/12/20 15:59:47;;;;;;;19.70;3.67;;;11.30;99.90;;;;;;5108231;28;20471;-71
2020/12/20 16:02:12;;;;;;;15.70;3.25;;;11.20;99.90;;;;;;5093132;28;20032;-71
2020/12/20 16:04:38;;;;;;;17.20;3.22;;;10.90;99.90;;;;;;5091763;28;20398;-74
2020/12/20 16:07:05;;;;;;;13.00;3.03;;;10.70;99.90;;;;;;5097755;28;20515;-73
2020/12/20 16:09:31;;;;;;;18.23;3.67;;;10.70;99.90;;;;;;5109859;28;20043;-71
2020/12/20 16:11:57;;;;;;;17.15;3.22;;;10.50;99.90;;;;;;5106398;28;20527;-71
2020/12/20 16:14:23;;;;;;;15.27;3.80;;;10.40;99.90;;;;;;5100379;28;20043;-71
2020/12/20 16:16:54;;;;;;;14.05;3.80;;;10.30;99.90;;;;;;5103913;28;20024;-72
2020/12/20 16:19:20;;;;;;;11.90;3.40;;;10.30;99.90;;;;;;5088736;28;20020;-71
2020/12/20 16:21:46;;;;;;;19.20;3.60;;;10.20;99.90;;;;;;5082455;28;20020;-71
2020/12/20 16:24:12;;;;;;;13.13;3.42;;;10.20;99.90;;;;;;5104476;28;20476;-71
2020/12/20 16:26:39;;;;;;;14.32;3.83;;;10.10;99.90;;;;;;5103174;28;20016;-72
2020/12/20 16:29:05;;;;;;;15.98;3.67;;;10.10;99.90;;;;;;5095498;28;20734;-71
2020/12/20 16:31:43;;;;;;;14.52;3.70;;;10.10;99.90;;;;;;5108611;28;20102;-70
2020/12/20 16:34:10;;;;;;;11.70;3.33;;;10.10;99.90;;;;;;5088872;28;20024;-72
2020/12/20 16:36:36;;;;;;;12.52;3.85;;;10.10;99.90;;;;;;5088161;28;20024;-71
2020/12/20 16:39:05;;;;;;;15.80;3.40;;;9.90;99.90;;;;;;5094696;28;20028;-72
2020/12/20 16:41:31;;;;;;;12.65;3.60;;;10.10;99.90;;;;;;5108171;28;20657;-74
2020/12/20 16:43:56;;;;;;;9.80;3.60;;;10.20;99.90;;;;;;5108159;28;20028;-72
2020/12/20 16:46:22;;;;;;;14.30;3.53;;;10.20;99.90;;;;;;5107180;28;20024;-72
2020/12/20 16:48:48;;;;;;;17.50;3.83;;;10.20;99.90;;;;;;5087832;28;20048;-72
2020/12/20 16:51:13;;;;;;;17.27;4.03;;;10.20;99.90;;;;;;5088084;28;20460;-71
2020/12/20 16:53:41;;;;;;;11.65;4.32;;;10.30;99.90;;;;;;5088105;28;20573;-73
2020/12/20 16:56:07;;;;;;;13.85;3.95;;;10.30;99.90;;;;;;5095252;28;20376;-70
2020/12/20 16:58:32;;;;;;;11.80;3.70;;;10.40;99.90;;;;;;5099738;28;20035;-71
2020/12/20 17:00:58;;;;;;;16.23;4.53;;;10.40;99.90;;;;;;5096985;28;20024;-71
2020/12/20 17:03:23;;;;;;;12.65;4.20;;;10.40;99.90;;;;;;5094925;28;20074;-71
2020/12/20 17:05:49;;;;;;;15.20;3.75;;;10.40;99.90;;;;;;5094084;28;20483;-70
2020/12/20 17:08:16;;;;;;;16.80;3.58;;;10.50;99.90;;;;;;5094234;28;20040;-71
2020/12/20 17:10:42;;;;;;;16.00;3.40;;;10.50;99.90;;;;;;5074384;28;20021;-70
2020/12/20 17:13:08;;;;;;;15.57;3.35;;;10.60;99.90;;;;;;5074077;28;20059;-70
2020/12/20 17:15:35;;;;;;;10.63;3.40;;;10.60;99.90;;;;;;5083911;28;20207;-71
2020/12/20 17:18:00;;;;;;;14.60;3.40;;;10.60;99.90;;;;;;5095072;28;20392;-72
2020/12/20 17:20:26;;;;;;;13.48;3.72;;;10.60;99.90;;;;;;5095570;28;20030;-77
2020/12/20 17:26:24;;;;;;;10.63;3.03;;;10.70;99.90;;;;;;5095396;28;20038;-75
2020/12/20 17:28:49;;;;;;;17.88;3.70;;;10.60;99.90;;;;;;5095417;28;20043;-72
2020/12/20 17:31:17;;;;;;;13.25;3.63;;;10.50;99.90;;;;;;5095136;28;20024;-72
2020/12/20 17:33:43;;;;;;;17.10;4.57;;;10.50;99.90;;;;;;5094896;28;20024;-71
2020/12/20 17:36:13;;;;;;;14.27;3.80;;;10.50;99.90;;;;;;5095027;28;20043;-72
2020/12/20 17:38:40;;;;;;;16.67;3.88;;;10.60;99.90;;;;;;5095141;28;20115;-72
2020/12/20 17:41:06;;;;;;;12.75;3.55;;;10.50;99.90;;;;;;5094865;28;20016;-73
2020/12/20 17:43:31;;;;;;;18.42;3.97;;;10.60;99.90;;;;;;5094746;28;20030;-72
2020/12/20 17:45:57;;;;;;;14.88;3.60;;;10.50;99.90;;;;;;5094804;28;20024;-73
2020/12/20 17:48:23;;;;;;;16.60;4.00;;;10.50;99.90;;;;;;5094565;28;20052;-72
2020/12/20 17:50:48;;;;;;;12.82;4.13;;;10.40;99.90;;;;;;5094814;28;20039;-72
2020/12/20 17:56:36;;;;;;;15.15;3.40;;;10.50;99.90;;;;;;5094800;28;20031;-73
2020/12/20 17:59:02;;;;;;;11.02;3.38;;;10.60;99.90;;;;;;5092199;28;20024;-73
2020/12/20 18:01:32;;;;;;;13.43;3.50;;;10.60;99.90;;;;;;5094417;28;20390;-74
2020/12/20 18:03:57;;;;;;;12.40;3.28;;;10.60;99.90;;;;;;5094567;28;20052;-74
2020/12/20 18:06:23;;;;;;;13.05;3.63;;;10.70;99.90;;;;;;5093924;28;20432;-71
2020/12/20 18:08:49;;;;;;;18.17;3.97;;;10.70;99.90;;;;;;5092144;28;20060;-70
2020/12/20 18:11:14;;;;;;;18.35;3.72;;;10.70;99.90;;;;;;5093394;28;20057;-72
2020/12/20 18:13:40;;;;;;;14.98;3.35;;;10.80;99.90;;;;;;5093832;28;20061;-72
2020/12/20 18:16:09;;;;;;;13.50;3.45;;;10.80;99.90;;;;;;5093304;28;20099;-72
2020/12/20 18:18:35;;;;;;;18.35;4.32;;;10.80;99.90;;;;;;5094315;28;20023;-72
2020/12/20 18:21:00;;;;;;;13.52;3.72;;;10.80;99.90;;;;;;5093937;28;20382;-71
2020/12/20 18:26:48;;;;;;;15.05;3.90;;;10.80;99.90;;;;;;5093945;28;20121;-72
2020/12/20 18:29:14;;;;;;;16.17;3.90;;;10.80;99.90;;;;;;5093346;28;20063;-71
2020/12/20 18:31:40;;;;;;;13.20;3.72;;;10.90;99.90;;;;;;5094139;28;20153;-71
2020/12/20 18:34:06;;;;;;;15.43;4.05;;;10.90;99.90;;;;;;5094008;28;20054;-71
2020/12/20 18:36:36;;;;;;;12.10;3.63;;;10.90;99.90;;;;;;5093203;28;20413;-72
2020/12/20 18:39:11;;;;;;;16.05;4.28;;;10.90;99.90;;;;;;5093426;28;20441;-71
2020/12/20 18:41:37;;;;;;;18.60;5.20;;;10.90;99.90;;;;;;5093836;28;20043;-71
2020/12/20 18:44:08;;;;;;;15.45;4.22;;;10.90;99.90;;;;;;5093656;28;20032;-72
2020/12/20 18:46:42;;;;;;;13.93;3.72;;;10.90;99.90;;;;;;5093775;28;20020;-72
2020/12/20 18:49:07;;;;;;;11.35;3.63;;;10.90;99.90;;;;;;5093387;28;20043;-73
2020/12/20 18:51:33;;;;;;;13.25;3.63;;;10.90;99.90;;;;;;5093831;28;20039;-71
2020/12/20 18:53:59;;;;;;;9.32;3.50;;;10.90;99.90;;;;;;5093727;28;20028;-70
2020/12/20 18:56:25;;;;;;;15.20;3.90;;;10.90;99.90;;;;;;5093660;28;20093;-70
2020/12/20 18:58:50;;;;;;;16.08;3.90;;;10.90;99.90;;;;;;5093404;28;20024;-72
2020/12/20 19:01:20;;;;;;;15.48;4.25;;;10.90;99.90;;;;;;5093732;28;20023;-71
2020/12/20 19:03:46;;;;;;;13.48;3.72;;;10.90;99.90;;;;;;5093349;28;20058;-72
2020/12/20 19:06:12;;;;;;;14.77;3.95;;;10.90;99.90;;;;;;5093434;28;20024;-72
2020/12/20 19:11:59;;;;;;;14.27;3.95;;;10.80;99.90;;;;;;5093197;28;20473;-72
2020/12/20 19:14:25;;;;;;;15.18;3.63;;;10.80;99.90;;;;;;5093449;28;20031;-70
2020/12/20 19:16:51;;;;;;;13.50;3.80;;;10.70;99.90;;;;;;5091942;28;20064;-70
2020/12/20 19:19:19;;;;;;;15.50;3.40;;;10.60;99.90;;;;;;5093017;28;20482;-71
2020/12/20 19:28:10;;;;;;;12.75;3.80;;;10.40;99.90;;;;;;5093054;28;20541;-71
2020/12/20 19:30:36;;;;;;;18.70;4.22;;;10.40;99.90;;;;;;5092913;28;20024;-71
2020/12/20 19:33:01;;;;;;;17.23;3.60;;;10.40;99.90;;;;;;5093200;28;20126;-71
2020/12/20 19:35:28;;;;;;;14.50;3.33;;;10.30;99.90;;;;;;5092900;28;20032;-72
2020/12/20 19:37:54;;;;;;;17.75;3.45;;;10.30;99.90;;;;;;5092732;28;20024;-71
2020/12/20 19:40:19;;;;;;;14.32;3.78;;;10.30;99.90;;;;;;5092733;28;20031;-73
2020/12/20 19:42:45;;;;;;;17.10;3.33;;;10.30;99.90;;;;;;5092776;28;20099;-71
2020/12/20 19:45:10;;;;;;;15.25;3.08;;;10.30;99.90;;;;;;5092708;28;20081;-69
2020/12/20 19:47:36;;;;;;;14.60;4.00;;;10.30;99.90;;;;;;5092978;28;20070;-71
2020/12/20 19:50:04;;;;;;;13.00;3.50;;;10.30;99.90;;;;;;5092521;28;20475;-71
2020/12/20 19:52:36;;;;;;;12.50;2.97;;;10.20;99.90;;;;;;5092860;28;20027;-72
2020/12/20 19:55:03;;;;;;;16.23;3.58;;;10.20;99.90;;;;;;5092619;28;20012;-72
2020/12/20 19:57:29;;;;;;;12.27;3.90;;;10.20;99.90;;;;;;5092608;28;20073;-72
2020/12/20 19:59:55;;;;;;;13.32;3.40;;;10.10;99.90;;;;;;5092555;28;20028;-71
2020/12/20 20:02:22;;;;;;;14.35;3.70;;;10.10;99.90;;;;;;5092466;28;20032;-71
2020/12/20 20:04:49;;;;;;;14.68;3.60;;;10.10;99.90;;;;;;5092836;28;20043;-71
2020/12/20 20:07:15;;;;;;;12.02;3.80;;;10.10;99.90;;;;;;5092278;28;20498;-73
2020/12/20 20:09:40;;;;;;;10.80;3.53;;;10.10;99.90;;;;;;5092349;28;20040;-72
2020/12/20 20:12:06;;;;;;;15.20;4.25;;;10.00;99.90;;;;;;5092666;28;20020;-73
2020/12/20 20:14:32;;;;;;;11.90;3.72;;;9.90;99.90;;;;;;5092715;28;20467;-72
2020/12/20 20:16:57;;;;;;;13.60;3.70;;;10.00;99.90;;;;;;5092369;28;20031;-72
2020/12/20 20:19:23;;;;;;;15.30;3.53;;;10.00;99.90;;;;;;5092657;28;20024;-72
2020/12/20 20:21:48;;;;;;;17.55;4.32;;;10.00;99.90;;;;;;5089937;28;20042;-71
2020/12/20 20:27:38;;;;;;;8.13;3.17;;;9.80;99.90;;;;;;5092549;28;20054;-68
2020/12/20 20:30:05;;;;;;;15.38;3.90;;;11.20;99.90;;;;;;5092457;28;20581;-67
2020/12/20 20:32:32;;;;;;;11.00;4.00;;;14.00;99.90;;;;;;5092165;28;20403;-67
2020/12/20 20:34:58;;;;;;;17.65;4.20;;;14.60;99.90;;;;;;5093419;28;20039;-69
2020/12/20 20:37:24;;;;;;;16.40;4.40;;;14.10;99.90;;;;;;5095936;28;20016;-70
2020/12/20 20:43:12;;;;;;;12.13;4.25;;;15.00;99.90;;;;;;5096304;28;20062;-68
2020/12/20 20:45:37;;;;;;;14.48;4.57;;;14.90;99.90;;;;;;5096255;28;20056;-66
2020/12/20 20:48:03;;;;;;;10.00;3.72;;;15.00;99.90;;;;;;5095890;28;20103;-72
2020/12/20 20:50:29;;;;;;;15.35;4.60;;;15.60;99.90;;;;;;5096184;28;20078;-64
2020/12/20 20:52:54;;;;;;;13.20;3.58;;;15.80;99.90;;;;;;5096132;28;20016;-72
2020/12/20 20:55:20;;;;;;;11.63;3.90;;;15.70;99.90;;;;;;5096059;28;20062;-72
2020/12/20 20:57:46;;;;;;;13.70;4.38;;;15.60;99.90;;;;;;5096020;28;20031;-72
2020/12/20 21:00:11;;;;;;;12.85;3.58;;;15.70;99.90;;;;;;5095970;28;20421;-66
2020/12/20 21:02:37;;;;;;;10.40;3.40;;;16.20;99.90;;;;;;5095908;28;20440;-68
2020/12/20 21:05:03;;;;;;;10.98;3.60;;;16.40;99.90;;;;;;5095443;28;20024;-69
2020/12/20 21:07:28;;;;;;;11.13;3.90;;;15.90;99.90;;;;;;5093161;28;20055;-64
2020/12/20 21:13:16;;;;;;;15.82;3.22;;;15.30;99.90;;;;;;5094423;28;20470;-65
2020/12/20 21:15:41;;;;;;;13.68;3.97;;;16.10;99.90;;;;;;5094968;28;20020;-63
2020/12/20 21:18:07;;;;;;;14.45;3.60;;;16.40;99.90;;;;;;5095464;28;20039;-64
2020/12/20 21:20:33;;;;;;;8.05;2.97;;;16.50;99.90;;;;;;5095411;28;20020;-70
2020/12/20 21:22:58;;;;;;;11.73;3.13;;;16.60;99.90;;;;;;5095305;28;20039;-73
2020/12/20 21:25:24;;;;;;;12.90;3.28;;;15.60;99.90;;;;;;5094983;28;20036;-71
2020/12/20 21:27:50;;;;;;;10.75;2.78;;;14.00;99.90;;;;;;5095018;28;20020;-71
2020/12/20 21:30:16;;;;;;;12.80;3.70;;;13.00;99.90;;;;;;5095528;28;20129;-71
2020/12/20 21:32:41;;;;;;;10.35;3.13;;;12.30;99.90;;;;;;5095514;28;20070;-71
2020/12/20 21:35:07;;;;;;;11.73;3.00;;;11.80;99.90;;;;;;5095569;28;20028;-73
2020/12/20 21:37:33;;;;;;;17.48;3.65;;;11.50;99.90;;;;;;5095291;28;20459;-70
2020/12/20 21:43:20;;;;;;;11.05;2.85;;;11.00;99.90;;;;;;5095451;28;20101;-72
2020/12/20 21:45:46;;;;;;;16.45;4.57;;;10.90;99.90;;;;;;5095399;28;20460;-71
2020/12/20 21:48:12;;;;;;;12.18;3.95;;;10.70;99.90;;;;;;5094691;28;20475;-71
2020/12/20 21:50:38;;;;;;;16.13;4.18;;;10.50;99.90;;;;;;5094810;28;20024;-73
2020/12/20 21:53:03;;;;;;;18.80;4.20;;;10.30;99.90;;;;;;5095035;28;20031;-72
2020/12/20 21:55:29;;;;;;;15.48;3.47;;;10.30;99.90;;;;;;5094553;28;20024;-73
2020/12/20 21:57:56;;;;;;;14.70;3.30;;;10.20;99.90;;;;;;5094626;28;20072;-73
2020/12/20 22:00:28;;;;;;;17.65;3.95;;;10.10;99.90;;;;;;5094726;28;20472;-72
2020/12/20 22:02:54;;;;;;;17.83;3.78;;;10.00;99.90;;;;;;5095069;28;20028;-73
2020/12/20 22:05:22;;;;;;;11.55;2.88;;;9.90;99.90;;;;;;5094728;28;20024;-71
2020/12/20 22:07:47;;;;;;;13.60;3.40;;;9.90;99.90;;;;;;5094637;28;20089;-73
2020/12/20 22:13:36;;;;;;;14.45;3.30;;;9.80;99.90;;;;;;5094580;28;20035;-72
2020/12/20 22:16:02;;;;;;;14.40;3.72;;;9.70;99.90;;;;;;5094428;28;20016;-71